MSC Paola — 9HA2581 — position and weather

sailwx.info

Track history (hours):
 
Tides and Currents Weather Stations Pressure Air Temp Water Temp Dewpoint Dewpoint Depression Visibility Wind Speed Wind Dir Waves Ship Positions

MSC Paola

Last reported at 2016-May-29 11:31 UTC. Time now 2016-May-29 11:35 UTC.
Position S 29°53' E 031°02'.

Length 243 m; draft 9.5 m.

Type: Ship (hazmat cat A). MMSI: 248931000.

Date/timePositionNaut miles runAvg speedWind from/ knotsBaromVisibWave heightAir tempDewpointWater temp
2016-May-29 11:31S 29°53' E 031°02'0 0.0
2016-May-29 10:31S 29°53' E 031°02'0 0.0
2016-May-29 09:32S 29°53' E 031°02'0 0.0
2016-May-29 08:32S 29°53' E 031°02'0 0.0
2016-May-29 07:32S 29°53' E 031°02'0 0.0
2016-May-29 06:28S 29°53' E 031°02'0 0.0
2016-May-29 05:32S 29°53' E 031°02'0 0.0
2016-May-29 04:32S 29°53' E 031°02'0 0.0
2016-May-29 03:31S 29°53' E 031°02'0 0.0
2016-May-29 02:29S 29°53' E 031°02'0 0.0
2016-May-29 01:27S 29°53' E 031°02'0 0.0
2016-May-29 00:28S 29°53' E 031°02'0 0.0
2016-May-28 23:33S 29°53' E 031°02'0 0.0
2016-May-28 22:33S 29°53' E 031°02'0 0.0
2016-May-28 21:31S 29°53' E 031°01'0 0.0
2016-May-28 20:31S 29°53' E 031°02'0 0.1
2016-May-28 19:33S 29°53' E 031°02'6 5.8
2016-May-28 18:33S 29°49' E 031°06'1 0.9
2016-May-28 17:31S 29°48' E 031°07'7 7.5
2016-May-28 16:33S 29°43' E 031°13'4 3.6
2016-May-28 15:30S 29°40' E 031°12'0 0.0
2016-May-28 14:33S 29°40' E 031°12'0 0.0
2016-May-28 13:33S 29°40' E 031°12'0 0.0
2016-May-28 12:32S 29°40' E 031°12'0 0.0
2016-May-28 11:28S 29°40' E 031°12'0 0.0
2016-May-28 10:33S 29°40' E 031°12'0 0.0
2016-May-28 09:31S 29°40' E 031°12'0 0.0
2016-May-28 08:31S 29°40' E 031°12'0 0.0
2016-May-28 07:32S 29°40' E 031°12'0 0.1
2016-May-28 06:31S 29°39' E 031°12'0 0.0
2016-May-28 05:33S 29°39' E 031°12'0 0.1
2016-May-28 04:31S 29°39' E 031°12'0 0.1
2016-May-28 03:31S 29°39' E 031°12'0 0.1
2016-May-28 02:33S 29°39' E 031°12'0 0.0
2016-May-28 01:31S 29°39' E 031°13'0 0.0
2016-May-28 00:33S 29°39' E 031°13'0 0.1
2016-May-27 23:32S 29°39' E 031°12'0 0.1
2016-May-27 22:33S 29°40' E 031°12'0 0.0
2016-May-27 21:31S 29°40' E 031°12'0 0.1
2016-May-27 20:26S 29°40' E 031°12'0 0.0
2016-May-27 19:32S 29°40' E 031°12'0 0.0
2016-May-27 18:33S 29°40' E 031°12'0 0.0
2016-May-27 17:32S 29°40' E 031°12'0 0.0
2016-May-27 16:33S 29°40' E 031°12'0 0.0
2016-May-27 15:32S 29°40' E 031°12'0 0.0
2016-May-27 14:33S 29°40' E 031°12'0 0.0
2016-May-27 13:31S 29°40' E 031°12'0 0.0
2016-May-27 12:32S 29°40' E 031°12'0 0.0
2016-May-27 11:27S 29°40' E 031°12'0 0.0
2016-May-27 10:32S 29°39' E 031°12'0 0.1
2016-May-27 09:33S 29°39' E 031°12'0 0.0
2016-May-27 08:33S 29°39' E 031°12'0 0.0
2016-May-27 07:33S 29°39' E 031°12'0 0.0
2016-May-27 06:29S 29°39' E 031°12'0 0.0
2016-May-27 05:32S 29°39' E 031°12'0 0.0
2016-May-27 04:31S 29°39' E 031°12'0 0.0
2016-May-27 03:28S 29°39' E 031°12'0 0.0
2016-May-27 02:33S 29°39' E 031°12'0 0.1
2016-May-27 01:32S 29°39' E 031°13'0 0.1
2016-May-27 00:32S 29°40' E 031°13'0 0.0
2016-May-26 23:33S 29°40' E 031°13'0 0.0
2016-May-26 22:30S 29°40' E 031°13'0 0.1
2016-May-26 21:33S 29°39' E 031°13'0 0.1
2016-May-26 20:33S 29°39' E 031°12'0 0.1
2016-May-26 19:33S 29°40' E 031°12'0 0.0
2016-May-26 18:30S 29°40' E 031°12'0 0.0
2016-May-26 17:32S 29°40' E 031°12'0 0.1
2016-May-26 16:32S 29°40' E 031°12'0 0.0
2016-May-26 15:33S 29°40' E 031°12'0 0.0
2016-May-26 14:31S 29°39' E 031°12'0 0.0
2016-May-26 13:33S 29°39' E 031°12'0 0.0
2016-May-26 12:32S 29°39' E 031°12'0 0.0
2016-May-26 11:31S 29°39' E 031°12'0 0.0
2016-May-26 10:33S 29°39' E 031°12'0 0.0
2016-May-26 09:33S 29°39' E 031°12'0 0.2
2016-May-26 08:33S 29°40' E 031°13'4 4.2
2016-May-26 07:33S 29°41' E 031°17'10 9.7
2016-May-26 06:33S 29°49' E 031°13'9 8.6
2016-May-26 05:33S 29°57' E 031°07'9 8.8
2016-May-26 04:33S 30°04' E 031°01'9 8.6
2016-May-26 03:32S 30°12' E 030°57'8 8.7
2016-May-26 02:33S 30°19' E 030°52'  
2016-May-21 18:26S 33°49' E 015°24'  
Track history (hours):
 
Tides and Currents Weather Stations Pressure Air Temp Water Temp Dewpoint Dewpoint Depression Visibility Wind Speed Wind Dir Waves Ship Positions

MSC Paola

Last reported at 2016-May-29 11:31 UTC. Time now 2016-May-29 11:35 UTC.
Position S 29°53' E 031°02'.

Length 243 m; draft 9.5 m.

Type: Ship (hazmat cat A). MMSI: 248931000.

Date/timePositionNaut miles runAvg speedWind from/ knotsBaromVisibWave heightAir tempDewpointWater temp
2016-May-29 11:31S 29°53' E 031°02'0 0.0
2016-May-29 10:31S 29°53' E 031°02'0 0.0
2016-May-29 09:32S 29°53' E 031°02'0 0.0
2016-May-29 08:32S 29°53' E 031°02'0 0.0
2016-May-29 07:32S 29°53' E 031°02'0 0.0
2016-May-29 06:28S 29°53' E 031°02'0 0.0
2016-May-29 05:32S 29°53' E 031°02'0 0.0
2016-May-29 04:32S 29°53' E 031°02'0 0.0
2016-May-29 03:31S 29°53' E 031°02'0 0.0
2016-May-29 02:29S 29°53' E 031°02'0 0.0
2016-May-29 01:27S 29°53' E 031°02'0 0.0
2016-May-29 00:28S 29°53' E 031°02'0 0.0
2016-May-28 23:33S 29°53' E 031°02'0 0.0
2016-May-28 22:33S 29°53' E 031°02'0 0.0
2016-May-28 21:31S 29°53' E 031°01'0 0.0
2016-May-28 20:31S 29°53' E 031°02'0 0.1
2016-May-28 19:33S 29°53' E 031°02'6 5.8
2016-May-28 18:33S 29°49' E 031°06'1 0.9
2016-May-28 17:31S 29°48' E 031°07'7 7.5
2016-May-28 16:33S 29°43' E 031°13'4 3.6
2016-May-28 15:30S 29°40' E 031°12'0 0.0
2016-May-28 14:33S 29°40' E 031°12'0 0.0
2016-May-28 13:33S 29°40' E 031°12'0 0.0
2016-May-28 12:32S 29°40' E 031°12'0 0.0
2016-May-28 11:28S 29°40' E 031°12'0 0.0
2016-May-28 10:33S 29°40' E 031°12'0 0.0
2016-May-28 09:31S 29°40' E 031°12'0 0.0
2016-May-28 08:31S 29°40' E 031°12'0 0.0
2016-May-28 07:32S 29°40' E 031°12'0 0.1
2016-May-28 06:31S 29°39' E 031°12'0 0.0
2016-May-28 05:33S 29°39' E 031°12'0 0.1
2016-May-28 04:31S 29°39' E 031°12'0 0.1
2016-May-28 03:31S 29°39' E 031°12'0 0.1
2016-May-28 02:33S 29°39' E 031°12'0 0.0
2016-May-28 01:31S 29°39' E 031°13'0 0.0
2016-May-28 00:33S 29°39' E 031°13'0 0.1
2016-May-27 23:32S 29°39' E 031°12'0 0.1
2016-May-27 22:33S 29°40' E 031°12'0 0.0
2016-May-27 21:31S 29°40' E 031°12'0 0.1
2016-May-27 20:26S 29°40' E 031°12'0 0.0
2016-May-27 19:32S 29°40' E 031°12'0 0.0
2016-May-27 18:33S 29°40' E 031°12'0 0.0
2016-May-27 17:32S 29°40' E 031°12'0 0.0
2016-May-27 16:33S 29°40' E 031°12'0 0.0
2016-May-27 15:32S 29°40' E 031°12'0 0.0
2016-May-27 14:33S 29°40' E 031°12'0 0.0
2016-May-27 13:31S 29°40' E 031°12'0 0.0
2016-May-27 12:32S 29°40' E 031°12'0 0.0
2016-May-27 11:27S 29°40' E 031°12'0 0.0
2016-May-27 10:32S 29°39' E 031°12'0 0.1
2016-May-27 09:33S 29°39' E 031°12'0 0.0
2016-May-27 08:33S 29°39' E 031°12'0 0.0
2016-May-27 07:33S 29°39' E 031°12'0 0.0
2016-May-27 06:29S 29°39' E 031°12'0 0.0
2016-May-27 05:32S 29°39' E 031°12'0 0.0
2016-May-27 04:31S 29°39' E 031°12'0 0.0
2016-May-27 03:28S 29°39' E 031°12'0 0.0
2016-May-27 02:33S 29°39' E 031°12'0 0.1
2016-May-27 01:32S 29°39' E 031°13'0 0.1
2016-May-27 00:32S 29°40' E 031°13'0 0.0
2016-May-26 23:33S 29°40' E 031°13'0 0.0
2016-May-26 22:30S 29°40' E 031°13'0 0.1
2016-May-26 21:33S 29°39' E 031°13'0 0.1
2016-May-26 20:33S 29°39' E 031°12'0 0.1
2016-May-26 19:33S 29°40' E 031°12'0 0.0
2016-May-26 18:30S 29°40' E 031°12'0 0.0
2016-May-26 17:32S 29°40' E 031°12'0 0.1
2016-May-26 16:32S 29°40' E 031°12'0 0.0
2016-May-26 15:33S 29°40' E 031°12'0 0.0
2016-May-26 14:31S 29°39' E 031°12'0 0.0
2016-May-26 13:33S 29°39' E 031°12'0 0.0
2016-May-26 12:32S 29°39' E 031°12'0 0.0
2016-May-26 11:31S 29°39' E 031°12'0 0.0
2016-May-26 10:33S 29°39' E 031°12'0 0.0
2016-May-26 09:33S 29°39' E 031°12'0 0.2
2016-May-26 08:33S 29°40' E 031°13'4 4.2
2016-May-26 07:33S 29°41' E 031°17'10 9.7
2016-May-26 06:33S 29°49' E 031°13'9 8.6
2016-May-26 05:33S 29°57' E 031°07'9 8.8
2016-May-26 04:33S 30°04' E 031°01'9 8.6
2016-May-26 03:32S 30°12' E 030°57'8 8.7
2016-May-26 02:33S 30°19' E 030°52'  
2016-May-21 18:26S 33°49' E 015°24'  

Dump ship's entire track history